PWSweather.com
Personal Weather Stations
Station Observations
MASSAPEQUA
Massapequa, NY 11758

Massapequa, NY 11758

Lat: 40.66033, Lon: -73.46828

Elevation: 3

Station Type: Oregon Scientific WMR-968

http://www.massapequanyweather.com

High Low Average
Temperature 57.9°F14.4°C 50.4°F10.2°C 53.7°F12.1°C
Dew Point 57.9°F14.4°C 44.1°F6.7°C 52.5°F11.4°C
Winds 13.0 mph 20.9 kmh Calm Calm 7.0 mph S11.3 kmh S
Wind Gusts 17.0 mph27.4 kmh 3.0 mph4.8 kmh 10.0 mph16.1 kmh
Humidity 100% 74% 96%
Pressure 29.36 in994.2 mb 29.13 in986.5 mb -
Precipitation 0.55 in14.0 mm - -
Hour Temp Dew Point Humidity Winds Wind Gusts Pressure Precip Precip Rate Daily Precip Total
12:00 AM 51.3°F10.7°C 51.3°F10.7°C 100% 7.0 mph NE11.3 kmh NE 9.0 mph14.5 kmh 29.31 in992.6 mb 0.20 in5.1 mm 0.00 in/hr0.0 mm/hr 0.20 in5.1 mm
12:15 AM 51.8°F11.0°C 51.8°F11.0°C 100% 8.0 mph NE12.9 kmh NE 12.0 mph19.3 kmh 29.28 in991.5 mb 0.08 in2.0 mm 0.00 in/hr0.0 mm/hr 0.08 in2.0 mm
12:30 AM 51.6°F10.9°C 51.6°F10.9°C 100% 6.0 mph NE9.7 kmh NE 6.0 mph9.7 kmh 29.28 in991.5 mb 0.08 in2.0 mm 0.00 in/hr0.0 mm/hr 0.16 in4.1 mm
12:45 AM 51.4°F10.8°C 51.4°F10.8°C 100% 7.0 mph NE11.3 kmh NE 15.0 mph24.1 kmh 29.28 in991.5 mb 0.04 in1.0 mm 0.00 in/hr0.0 mm/hr 0.20 in5.1 mm
01:00 AM 51.6°F10.9°C 51.6°F10.9°C 100% 5.0 mph NE8.0 kmh NE 6.0 mph9.7 kmh 29.25 in990.5 mb 0.04 in1.0 mm 0.00 in/hr0.0 mm/hr 0.24 in6.1 mm
01:15 AM 52.1°F11.2°C 52.1°F11.2°C 100% 3.0 mph ENE4.8 kmh ENE 6.0 mph9.7 kmh 29.25 in990.5 mb 0.08 in2.0 mm 0.16 in/hr4.1 mm/hr 0.32 in8.1 mm
01:30 AM 52.4°F11.3°C 52.4°F11.3°C 100% Calm Calm 3.0 mph4.8 kmh 29.25 in990.5 mb 0.08 in2.0 mm 0.00 in/hr0.0 mm/hr 0.39 in9.9 mm
01:45 AM 53.1°F11.7°C 53.1°F11.7°C 100% Calm Calm 3.0 mph4.8 kmh 29.22 in989.5 mb 0.08 in2.0 mm 0.00 in/hr0.0 mm/hr 0.47 in11.9 mm
02:00 AM 54.9°F12.7°C 54.9°F12.7°C 100% 5.0 mph SE8.0 kmh SE 6.0 mph9.7 kmh 29.22 in989.5 mb 0.04 in1.0 mm 0.00 in/hr0.0 mm/hr 0.51 in13.0 mm
02:15 AM 57.9°F14.4°C 57.9°F14.4°C 100% 7.0 mph SE11.3 kmh SE 10.0 mph16.1 kmh 29.22 in989.5 mb 0.00 in0.0 mm 0.00 in/hr0.0 mm/hr 0.51 in13.0 mm
02:30 AM 57.9°F14.4°C 57.9°F14.4°C 100% 6.0 mph SSE9.7 kmh SSE 8.0 mph12.9 kmh 29.22 in989.5 mb 0.00 in0.0 mm 0.00 in/hr0.0 mm/hr 0.51 in13.0 mm
02:45 AM 57.8°F14.3°C 57.8°F14.3°C 100% 6.0 mph SE9.7 kmh SE 6.0 mph9.7 kmh 29.19 in988.5 mb 0.04 in1.0 mm 0.16 in/hr4.1 mm/hr 0.55 in14.0 mm
03:00 AM 57.4°F14.1°C 57.4°F14.1°C 100% 5.0 mph E8.0 kmh E 6.0 mph9.7 kmh 29.19 in988.5 mb 0.00 in0.0 mm 0.00 in/hr0.0 mm/hr 0.55 in14.0 mm
03:15 AM 57.0°F13.9°C 57.0°F13.9°C 100% 7.0 mph ENE11.3 kmh ENE 8.0 mph12.9 kmh 29.19 in988.5 mb 0.00 in0.0 mm 0.00 in/hr0.0 mm/hr 0.55 in14.0 mm
03:30 AM 57.3°F14.1°C 57.3°F14.1°C 100% 6.0 mph E9.7 kmh E 10.0 mph16.1 kmh 29.16 in987.5 mb 0.00 in0.0 mm 0.00 in/hr0.0 mm/hr 0.55 in14.0 mm
03:45 AM 57.4°F14.1°C 57.4°F14.1°C 100% 7.0 mph SE11.3 kmh SE 9.0 mph14.5 kmh 29.16 in987.5 mb 0.00 in0.0 mm 0.00 in/hr0.0 mm/hr 0.55 in14.0 mm
04:00 AM 57.2°F14.0°C 57.2°F14.0°C 100% 7.0 mph ESE11.3 kmh ESE 8.0 mph12.9 kmh 29.16 in987.5 mb 0.00 in0.0 mm 0.00 in/hr0.0 mm/hr 0.55 in14.0 mm
04:15 AM 57.6°F14.2°C 57.6°F14.2°C 100% 5.0 mph ESE8.0 kmh ESE 10.0 mph16.1 kmh 29.16 in987.5 mb 0.00 in0.0 mm 0.00 in/hr0.0 mm/hr 0.55 in14.0 mm
04:30 AM 57.6°F14.2°C 57.6°F14.2°C 100% 8.0 mph SE12.9 kmh SE 9.0 mph14.5 kmh 29.16 in987.5 mb 0.00 in0.0 mm 0.00 in/hr0.0 mm/hr 0.55 in14.0 mm
04:45 AM 57.9°F14.4°C 57.9°F14.4°C 100% 8.0 mph ESE12.9 kmh ESE 8.0 mph12.9 kmh 29.16 in987.5 mb 0.00 in0.0 mm 0.00 in/hr0.0 mm/hr 0.55 in14.0 mm
05:00 AM 57.9°F14.4°C 57.9°F14.4°C 100% 7.0 mph ESE11.3 kmh ESE 9.0 mph14.5 kmh 29.16 in987.5 mb 0.00 in0.0 mm 0.00 in/hr0.0 mm/hr 0.55 in14.0 mm
05:15 AM 57.7°F14.3°C 57.7°F14.3°C 100% 6.0 mph SE9.7 kmh SE 8.0 mph12.9 kmh 29.16 in987.5 mb 0.00 in0.0 mm 0.00 in/hr0.0 mm/hr 0.55 in14.0 mm
05:30 AM 57.6°F14.2°C 57.6°F14.2°C 100% 8.0 mph SE12.9 kmh SE 9.0 mph14.5 kmh 29.16 in987.5 mb 0.00 in0.0 mm 0.00 in/hr0.0 mm/hr 0.55 in14.0 mm
05:45 AM 57.2°F14.0°C 57.2°F14.0°C 100% 8.0 mph SE12.9 kmh SE 15.0 mph24.1 kmh 29.13 in986.5 mb 0.00 in0.0 mm 0.00 in/hr0.0 mm/hr 0.55 in14.0 mm
06:00 AM 56.1°F13.4°C 56.1°F13.4°C 100% 7.0 mph SSE11.3 kmh SSE 14.0 mph22.5 kmh 29.16 in987.5 mb 0.00 in0.0 mm 0.00 in/hr0.0 mm/hr 0.55 in14.0 mm
06:15 AM 54.7°F12.6°C 54.7°F12.6°C 100% 7.0 mph SE11.3 kmh SE 9.0 mph14.5 kmh 29.16 in987.5 mb 0.00 in0.0 mm 0.00 in/hr0.0 mm/hr 0.55 in14.0 mm
06:30 AM 54.3°F12.4°C 54.3°F12.4°C 100% 7.0 mph SE11.3 kmh SE 10.0 mph16.1 kmh 29.16 in987.5 mb 0.00 in0.0 mm 0.00 in/hr0.0 mm/hr 0.55 in14.0 mm
06:45 AM 54.0°F12.2°C 54.0°F12.2°C 100% 8.0 mph SE12.9 kmh SE 10.0 mph16.1 kmh 29.16 in987.5 mb 0.00 in0.0 mm 0.00 in/hr0.0 mm/hr 0.55 in14.0 mm
07:00 AM 53.1°F11.7°C 53.1°F11.7°C 100% 9.0 mph SSE14.5 kmh SSE 10.0 mph16.1 kmh 29.16 in987.5 mb 0.00 in0.0 mm 0.00 in/hr0.0 mm/hr 0.55 in14.0 mm
07:15 AM 53.1°F11.7°C 53.1°F11.7°C 100% 7.0 mph SSE11.3 kmh SSE 8.0 mph12.9 kmh 29.19 in988.5 mb 0.00 in0.0 mm 0.00 in/hr0.0 mm/hr 0.55 in14.0 mm
07:30 AM 52.9°F11.6°C 52.9°F11.6°C 100% 7.0 mph SE11.3 kmh SE 10.0 mph16.1 kmh 29.19 in988.5 mb 0.00 in0.0 mm 0.00 in/hr0.0 mm/hr 0.55 in14.0 mm
07:45 AM 52.9°F11.6°C 52.9°F11.6°C 100% 7.0 mph SE11.3 kmh SE 15.0 mph24.1 kmh 29.19 in988.5 mb 0.00 in0.0 mm 0.00 in/hr0.0 mm/hr 0.55 in14.0 mm
08:00 AM 53.1°F11.7°C 53.1°F11.7°C 100% 9.0 mph SE14.5 kmh SE 15.0 mph24.1 kmh 29.19 in988.5 mb 0.00 in0.0 mm 0.00 in/hr0.0 mm/hr 0.55 in14.0 mm
08:15 AM 52.5°F11.4°C 52.5°F11.4°C 100% 9.0 mph S14.5 kmh S 10.0 mph16.1 kmh 29.19 in988.5 mb 0.00 in0.0 mm 0.00 in/hr0.0 mm/hr 0.55 in14.0 mm
08:30 AM 52.0°F11.1°C 52.0°F11.1°C 100% 7.0 mph S11.3 kmh S 13.0 mph20.9 kmh 29.19 in988.5 mb 0.00 in0.0 mm 0.00 in/hr0.0 mm/hr 0.55 in14.0 mm
08:45 AM 52.0°F11.1°C 52.0°F11.1°C 100% 8.0 mph SW12.9 kmh SW 10.0 mph16.1 kmh 29.19 in988.5 mb 0.00 in0.0 mm 0.00 in/hr0.0 mm/hr 0.55 in14.0 mm
09:00 AM 51.6°F10.9°C 51.6°F10.9°C 100% 7.0 mph SSW11.3 kmh SSW 12.0 mph19.3 kmh 29.22 in989.5 mb 0.00 in0.0 mm 0.00 in/hr0.0 mm/hr 0.55 in14.0 mm
09:15 AM 51.6°F10.9°C 51.6°F10.9°C 100% 8.0 mph SSE12.9 kmh SSE 10.0 mph16.1 kmh 29.22 in989.5 mb 0.00 in0.0 mm 0.00 in/hr0.0 mm/hr 0.55 in14.0 mm
09:30 AM 51.1°F10.6°C 51.1°F10.6°C 100% 8.0 mph SSW12.9 kmh SSW 13.0 mph20.9 kmh 29.22 in989.5 mb 0.00 in0.0 mm 0.00 in/hr0.0 mm/hr 0.55 in14.0 mm
09:45 AM 50.8°F10.4°C 50.8°F10.4°C 100% 7.0 mph SSW11.3 kmh SSW 12.0 mph19.3 kmh 29.22 in989.5 mb 0.00 in0.0 mm 0.00 in/hr0.0 mm/hr 0.55 in14.0 mm
10:00 AM 51.0°F10.6°C 51.0°F10.6°C 100% 8.0 mph S12.9 kmh S 10.0 mph16.1 kmh 29.22 in989.5 mb 0.00 in0.0 mm 0.00 in/hr0.0 mm/hr 0.55 in14.0 mm
10:15 AM 51.4°F10.8°C 51.4°F10.8°C 100% 7.0 mph S11.3 kmh S 10.0 mph16.1 kmh 29.25 in990.5 mb 0.00 in0.0 mm 0.00 in/hr0.0 mm/hr 0.55 in14.0 mm
10:30 AM 51.4°F10.8°C 51.4°F10.8°C 100% 6.0 mph S9.7 kmh S 14.0 mph22.5 kmh 29.25 in990.5 mb 0.00 in0.0 mm 0.00 in/hr0.0 mm/hr 0.55 in14.0 mm
10:45 AM 51.4°F10.8°C 51.4°F10.8°C 100% 7.0 mph WSW11.3 kmh WSW 8.0 mph12.9 kmh 29.25 in990.5 mb 0.00 in0.0 mm 0.00 in/hr0.0 mm/hr 0.55 in14.0 mm
11:00 AM 51.3°F10.7°C 51.3°F10.7°C 100% 7.0 mph SW11.3 kmh SW 9.0 mph14.5 kmh 29.25 in990.5 mb 0.00 in0.0 mm 0.00 in/hr0.0 mm/hr 0.55 in14.0 mm
11:15 AM 51.4°F10.8°C 51.4°F10.8°C 100% 7.0 mph S11.3 kmh S 9.0 mph14.5 kmh 29.25 in990.5 mb 0.00 in0.0 mm 0.00 in/hr0.0 mm/hr 0.55 in14.0 mm
11:30 AM 51.6°F10.9°C 51.6°F10.9°C 100% 9.0 mph S14.5 kmh S 10.0 mph16.1 kmh 29.25 in990.5 mb 0.00 in0.0 mm 0.00 in/hr0.0 mm/hr 0.55 in14.0 mm
11:45 AM 51.8°F11.0°C 51.8°F11.0°C 100% 7.0 mph SW11.3 kmh SW 8.0 mph12.9 kmh 29.28 in991.5 mb 0.00 in0.0 mm 0.00 in/hr0.0 mm/hr 0.55 in14.0 mm
12:00 PM 52.3°F11.3°C 52.3°F11.3°C 100% 8.0 mph SSW12.9 kmh SSW 8.0 mph12.9 kmh 29.28 in991.5 mb 0.00 in0.0 mm 0.00 in/hr0.0 mm/hr 0.55 in14.0 mm
12:15 PM 52.9°F11.6°C 52.9°F11.6°C 100% 6.0 mph SW9.7 kmh SW 8.0 mph12.9 kmh 29.28 in991.5 mb 0.00 in0.0 mm 0.00 in/hr0.0 mm/hr 0.55 in14.0 mm
12:30 PM 53.2°F11.8°C 53.2°F11.8°C 100% 6.0 mph S9.7 kmh S 12.0 mph19.3 kmh 29.28 in991.5 mb 0.00 in0.0 mm 0.00 in/hr0.0 mm/hr 0.55 in14.0 mm
12:45 PM 53.1°F11.7°C 53.1°F11.7°C 100% 9.0 mph S14.5 kmh S 12.0 mph19.3 kmh 29.28 in991.5 mb 0.00 in0.0 mm 0.00 in/hr0.0 mm/hr 0.55 in14.0 mm
01:00 PM 53.1°F11.7°C 53.1°F11.7°C 100% 6.0 mph SSW9.7 kmh SSW 12.0 mph19.3 kmh 29.28 in991.5 mb 0.00 in0.0 mm 0.00 in/hr0.0 mm/hr 0.55 in14.0 mm
01:15 PM 54.3°F12.4°C 54.3°F12.4°C 100% 7.0 mph SW11.3 kmh SW 10.0 mph16.1 kmh 29.28 in991.5 mb 0.00 in0.0 mm 0.00 in/hr0.0 mm/hr 0.55 in14.0 mm
01:30 PM 54.0°F12.2°C 54.0°F12.2°C 100% 7.0 mph S11.3 kmh S 12.0 mph19.3 kmh 29.28 in991.5 mb 0.00 in0.0 mm 0.00 in/hr0.0 mm/hr 0.55 in14.0 mm
01:45 PM 53.4°F11.9°C 53.4°F11.9°C 100% 6.0 mph SW9.7 kmh SW 9.0 mph14.5 kmh 29.28 in991.5 mb 0.00 in0.0 mm 0.00 in/hr0.0 mm/hr 0.55 in14.0 mm
02:00 PM 53.4°F11.9°C 53.4°F11.9°C 100% 6.0 mph SW9.7 kmh SW 8.0 mph12.9 kmh 29.31 in992.6 mb 0.00 in0.0 mm 0.00 in/hr0.0 mm/hr 0.55 in14.0 mm
02:15 PM 53.4°F11.9°C 53.4°F11.9°C 100% 6.0 mph SW9.7 kmh SW 8.0 mph12.9 kmh 29.31 in992.6 mb 0.00 in0.0 mm 0.00 in/hr0.0 mm/hr 0.55 in14.0 mm
02:30 PM 53.4°F11.9°C 53.4°F11.9°C 100% 7.0 mph SSW11.3 kmh SSW 12.0 mph19.3 kmh 29.31 in992.6 mb 0.00 in0.0 mm 0.00 in/hr0.0 mm/hr 0.55 in14.0 mm
02:45 PM 54.1°F12.3°C 54.1°F12.3°C 100% 6.0 mph S9.7 kmh S 12.0 mph19.3 kmh 29.31 in992.6 mb 0.00 in0.0 mm 0.00 in/hr0.0 mm/hr 0.55 in14.0 mm
03:00 PM 53.8°F12.1°C 53.8°F12.1°C 100% 7.0 mph SW11.3 kmh SW 9.0 mph14.5 kmh 29.31 in992.6 mb 0.00 in0.0 mm 0.00 in/hr0.0 mm/hr 0.55 in14.0 mm
03:15 PM 53.6°F12.0°C 53.6°F12.0°C 100% 7.0 mph SW11.3 kmh SW 9.0 mph14.5 kmh 29.31 in992.6 mb 0.00 in0.0 mm 0.00 in/hr0.0 mm/hr 0.55 in14.0 mm
03:30 PM 53.6°F12.0°C 53.6°F12.0°C 100% 6.0 mph SW9.7 kmh SW 8.0 mph12.9 kmh 29.31 in992.6 mb 0.00 in0.0 mm 0.00 in/hr0.0 mm/hr 0.55 in14.0 mm
03:45 PM 53.8°F12.1°C 52.9°F11.6°C 97% 5.0 mph S8.0 kmh S 9.0 mph14.5 kmh 29.31 in992.6 mb 0.00 in0.0 mm 0.00 in/hr0.0 mm/hr 0.55 in14.0 mm
04:00 PM 53.8°F12.1°C 52.1°F11.2°C 94% 3.0 mph SSW4.8 kmh SSW 6.0 mph9.7 kmh 29.31 in992.6 mb 0.00 in0.0 mm 0.00 in/hr0.0 mm/hr 0.55 in14.0 mm
04:15 PM 54.1°F12.3°C 52.5°F11.4°C 94% 5.0 mph SW8.0 kmh SW 8.0 mph12.9 kmh 29.31 in992.6 mb 0.00 in0.0 mm 0.00 in/hr0.0 mm/hr 0.55 in14.0 mm
04:30 PM 54.1°F12.3°C 49.4°F9.7°C 84% 7.0 mph S11.3 kmh S 9.0 mph14.5 kmh 29.31 in992.6 mb 0.00 in0.0 mm 0.00 in/hr0.0 mm/hr 0.55 in14.0 mm
04:45 PM 53.5°F11.9°C 47.5°F8.6°C 80% 7.0 mph S11.3 kmh S 13.0 mph20.9 kmh 29.31 in992.6 mb 0.00 in0.0 mm 0.00 in/hr0.0 mm/hr 0.55 in14.0 mm
05:00 PM 52.9°F11.6°C 44.8°F7.1°C 74% 8.0 mph S12.9 kmh S 13.0 mph20.9 kmh 29.34 in993.6 mb 0.00 in0.0 mm 0.00 in/hr0.0 mm/hr 0.55 in14.0 mm
05:15 PM 53.2°F11.8°C 45.2°F7.3°C 74% 7.0 mph S11.3 kmh S 9.0 mph14.5 kmh 29.34 in993.6 mb 0.00 in0.0 mm 0.00 in/hr0.0 mm/hr 0.55 in14.0 mm
05:30 PM 53.2°F11.8°C 45.5°F7.5°C 75% 7.0 mph SW11.3 kmh SW 9.0 mph14.5 kmh 29.31 in992.6 mb 0.00 in0.0 mm 0.00 in/hr0.0 mm/hr 0.55 in14.0 mm
05:45 PM 53.4°F11.9°C 46.4°F8.0°C 77% 7.0 mph SW11.3 kmh SW 9.0 mph14.5 kmh 29.34 in993.6 mb 0.00 in0.0 mm 0.00 in/hr0.0 mm/hr 0.55 in14.0 mm
06:00 PM 52.7°F11.5°C 45.0°F7.2°C 75% 7.0 mph SW11.3 kmh SW 9.0 mph14.5 kmh 29.34 in993.6 mb 0.00 in0.0 mm 0.00 in/hr0.0 mm/hr 0.55 in14.0 mm
06:15 PM 52.3°F11.3°C 45.0°F7.2°C 76% 13.0 mph SW20.9 kmh SW 17.0 mph27.4 kmh 29.34 in993.6 mb 0.00 in0.0 mm 0.00 in/hr0.0 mm/hr 0.55 in14.0 mm
06:30 PM 51.6°F10.9°C 44.3°F6.8°C 76% 9.0 mph WSW14.5 kmh WSW 12.0 mph19.3 kmh 29.34 in993.6 mb 0.00 in0.0 mm 0.00 in/hr0.0 mm/hr 0.55 in14.0 mm
06:45 PM 51.1°F10.6°C 44.1°F6.7°C 77% 8.0 mph SW12.9 kmh SW 9.0 mph14.5 kmh 29.34 in993.6 mb 0.00 in0.0 mm 0.00 in/hr0.0 mm/hr 0.55 in14.0 mm
07:00 PM 50.9°F10.5°C 44.3°F6.8°C 78% 9.0 mph SW14.5 kmh SW 9.0 mph14.5 kmh 29.36 in994.2 mb 0.00 in0.0 mm 0.00 in/hr0.0 mm/hr 0.55 in14.0 mm
07:15 PM 50.5°F10.3°C 44.3°F6.8°C 79% 5.0 mph SW8.0 kmh SW 10.0 mph16.1 kmh 29.36 in994.2 mb 0.00 in0.0 mm 0.00 in/hr0.0 mm/hr 0.55 in14.0 mm
07:30 PM 50.4°F10.2°C 44.4°F6.9°C 80% 5.0 mph SW8.0 kmh SW 8.0 mph12.9 kmh 29.36 in994.2 mb 0.00 in0.0 mm 0.00 in/hr0.0 mm/hr 0.55 in14.0 mm
07:45 PM 50.4°F10.2°C 45.1°F7.3°C 82% 6.0 mph SW9.7 kmh SW 7.0 mph11.3 kmh 29.36 in994.2 mb 0.00 in0.0 mm 0.00 in/hr0.0 mm/hr 0.55 in14.0 mm
08:00 PM 50.4°F10.2°C 45.7°F7.6°C 84% 8.0 mph SW12.9 kmh SW 9.0 mph14.5 kmh 29.36 in994.2 mb 0.00 in0.0 mm 0.00 in/hr0.0 mm/hr 0.55 in14.0 mm
08:15 PM 50.4°F10.2°C 45.7°F7.6°C 84% 5.0 mph SW8.0 kmh SW 6.0 mph9.7 kmh 29.36 in994.2 mb 0.00 in0.0 mm 0.00 in/hr0.0 mm/hr 0.55 in14.0 mm
08:30 PM 50.4°F10.2°C 45.1°F7.3°C 82% 5.0 mph SW8.0 kmh SW 10.0 mph16.1 kmh 29.39 in995.3 mb 0.00 in0.0 mm 0.00 in/hr0.0 mm/hr 0.55 in14.0 mm
08:45 PM 50.4°F10.2°C 43.8°F6.6°C 78% 7.0 mph SSW11.3 kmh SSW 10.0 mph16.1 kmh 29.39 in995.3 mb 0.00 in0.0 mm 0.00 in/hr0.0 mm/hr 0.55 in14.0 mm
09:00 PM 50.0°F10.0°C 42.7°F5.9°C 76% 6.0 mph SSW9.7 kmh SSW 10.0 mph16.1 kmh 29.39 in995.3 mb 0.00 in0.0 mm 0.00 in/hr0.0 mm/hr 0.55 in14.0 mm
09:15 PM 49.6°F9.8°C 42.0°F5.6°C 75% 6.0 mph SW9.7 kmh SW 6.0 mph9.7 kmh 29.39 in995.3 mb 0.00 in0.0 mm 0.00 in/hr0.0 mm/hr 0.55 in14.0 mm
09:30 PM 49.3°F9.6°C 41.3°F5.2°C 74% 7.0 mph SW11.3 kmh SW 10.0 mph16.1 kmh 29.39 in995.3 mb 0.00 in0.0 mm 0.00 in/hr0.0 mm/hr 0.55 in14.0 mm
09:45 PM 49.3°F9.6°C 41.3°F5.2°C 74% 10.0 mph SW16.1 kmh SW 15.0 mph24.1 kmh 29.39 in995.3 mb 0.00 in0.0 mm 0.00 in/hr0.0 mm/hr 0.55 in14.0 mm
10:00 PM 49.1°F9.5°C 41.2°F5.1°C 74% 5.0 mph SW8.0 kmh SW 9.0 mph14.5 kmh 29.39 in995.3 mb 0.00 in0.0 mm 0.00 in/hr0.0 mm/hr 0.55 in14.0 mm
10:15 PM 48.6°F9.2°C 41.0°F5.0°C 75% 6.0 mph SW9.7 kmh SW 14.0 mph22.5 kmh 29.39 in995.3 mb 0.00 in0.0 mm 0.00 in/hr0.0 mm/hr 0.55 in14.0 mm
10:45 PM 47.8°F8.8°C 41.0°F5.0°C 77% 7.0 mph SW11.3 kmh SW 9.0 mph14.5 kmh 29.39 in995.3 mb 0.00 in0.0 mm 0.00 in/hr0.0 mm/hr 0.55 in14.0 mm
11:00 PM 48.0°F8.9°C 41.8°F5.4°C 79% 6.0 mph SSW9.7 kmh SSW 8.0 mph12.9 kmh 29.39 in995.3 mb 0.00 in0.0 mm 0.00 in/hr0.0 mm/hr 0.55 in14.0 mm
11:15 PM 47.8°F8.8°C 40.6°F4.8°C 76% 9.0 mph WSW14.5 kmh WSW 13.0 mph20.9 kmh 29.39 in995.3 mb 0.00 in0.0 mm 0.00 in/hr0.0 mm/hr 0.55 in14.0 mm
11:30 PM 46.8°F8.2°C 39.3°F4.1°C 75% 9.0 mph SW14.5 kmh SW 13.0 mph20.9 kmh 29.39 in995.3 mb 0.00 in0.0 mm 0.00 in/hr0.0 mm/hr 0.55 in14.0 mm
11:45 PM 46.7°F8.2°C 40.2°F4.6°C 78% 9.0 mph WSW14.5 kmh WSW 13.0 mph20.9 kmh 29.39 in995.3 mb 0.00 in0.0 mm 0.00 in/hr0.0 mm/hr 0.55 in14.0 mm